Time;durP1;ratioP1;P1;durP2;ratioP2;P2;SDS_P1;SDS_P2;PMS_P1;PMS_P2;Temp;Humidity;BMP_temperature;BMP_pressure;BME280_temperature;BME280_humidity;BME280_pressure;Samples;Min_cycle;Max_cycle;Signal;HPM_P1;HPM_P2
2022/01/21 00:00:20;;;;;;;;;;;4.60;99.90;;;;;;4994258;28;19977;-62
2022/01/21 00:02:46;;;;;;;;;;;4.60;99.90;;;;;;4993276;28;20348;-63
2022/01/21 00:05:12;;;;;;;;;;;4.70;99.90;;;;;;4992859;28;19964;-62
2022/01/21 00:07:38;;;;;;;;;;;4.70;99.90;;;;;;4991975;28;19913;-62
2022/01/21 00:10:04;;;;;;;;;;;4.70;99.90;;;;;;4989411;28;19922;-61
2022/01/21 00:12:31;;;;;;;;;;;4.60;99.90;;;;;;4995286;28;19910;-62
2022/01/21 00:14:57;;;;;;;;;;;4.60;99.90;;;;;;4990579;28;19936;-62
2022/01/21 00:17:23;;;;;;;;;;;4.60;99.90;;;;;;4992877;28;20445;-62
2022/01/21 00:30:01;;;;;;;;;;;4.60;99.90;;;;;;4992689;28;20031;-62
2022/01/21 00:30:47;;;;;;;;;;;4.50;99.90;;;;;;5006775;28;20416;-63
2022/01/21 00:33:13;;;;;;;;;;;4.50;99.90;;;;;;4993733;28;19925;-62
2022/01/21 00:35:38;;;;;;;;;;;4.30;99.90;;;;;;4992496;28;19921;-62
2022/01/21 00:38:04;;;;;;;;;;;4.30;99.90;;;;;;4992679;28;20400;-62
2022/01/21 00:40:32;;;;;;;;;;;4.30;99.90;;;;;;4990469;28;19914;-62
2022/01/21 00:45:32;;;;;;;;;;;4.40;99.90;;;;;;4995686;28;19918;-63
2022/01/21 00:47:58;;;;;;;;;;;4.20;99.90;;;;;;4994595;28;19924;-63
2022/01/21 00:50:23;;;;;;;;;;;4.20;99.90;;;;;;4994742;28;19922;-62
2022/01/21 00:52:49;;;;;;;;;;;4.30;99.90;;;;;;4992301;28;20053;-63
2022/01/21 00:55:14;;;;;;;;;;;4.20;99.90;;;;;;4991008;28;20453;-63
2022/01/21 00:57:40;;;;;;;;;;;4.20;99.90;;;;;;4998720;28;19910;-61
2022/01/21 01:00:08;;;;;;;;;;;4.30;99.90;;;;;;4997462;28;20676;-62
2022/01/21 01:02:34;;;;;;;;;;;4.40;99.90;;;;;;4997403;28;19992;-64
2022/01/21 01:04:59;;;;;;;;;;;4.40;99.90;;;;;;4995870;28;20000;-63
2022/01/21 01:07:25;;;;;;;;;;;4.40;99.90;;;;;;4993658;28;19953;-62
2022/01/21 01:09:53;;;;;;;;;;;4.40;99.90;;;;;;4996324;28;19933;-63
2022/01/21 01:12:44;;;;;;;;;;;4.50;99.90;;;;;;5007413;28;19920;-63
2022/01/21 01:20:37;;;;;;;;;;;4.50;99.90;;;;;;4995163;28;20436;-64
2022/01/21 01:23:10;;;;;;;;;;;4.40;99.90;;;;;;4995747;28;20021;-62
2022/01/21 01:28:19;;;;;;;;;;;4.20;99.90;;;;;;4977547;28;19941;-62
2022/01/21 01:30:45;;;;;;;;;;;4.20;99.90;;;;;;4996414;28;19918;-63
2022/01/21 01:33:13;;;;;;;;;;;4.30;99.90;;;;;;5005383;28;20301;-62
2022/01/21 01:35:40;;;;;;;;;;;4.30;99.90;;;;;;4998624;28;19968;-63
2022/01/21 01:38:28;;;;;;;;;;;4.30;99.90;;;;;;4995598;28;19917;-63
2022/01/21 01:40:59;;;;;;;;;;;4.30;99.90;;;;;;4995187;28;19913;-61
2022/01/21 01:51:22;;;;;;;;;;;4.30;99.90;;;;;;5159332;22;20025;-65
2022/01/21 01:53:53;;;;;;;;;;;4.30;99.90;;;;;;4992511;28;20008;-64
2022/01/21 01:56:21;;;;;;;;;;;4.20;99.90;;;;;;4995476;28;20365;-65
2022/01/21 01:58:46;;;;;;;;;;;4.20;99.90;;;;;;4994405;28;19913;-65
2022/01/21 02:01:12;;;;;;;;;;;4.10;99.90;;;;;;4992770;28;19973;-64
2022/01/21 02:03:38;;;;;;;;;;;4.10;99.90;;;;;;5009013;28;19909;-66
2022/01/21 02:06:04;;;;;;;;;;;4.10;99.90;;;;;;4994264;28;20489;-63
2022/01/21 02:08:29;;;;;;;;;;;4.10;99.90;;;;;;4995094;28;19913;-65
2022/01/21 02:10:55;;;;;;;;;;;4.10;99.90;;;;;;4994353;28;19921;-63
2022/01/21 02:13:24;;;;;;;;;;;4.10;99.90;;;;;;4991368;28;19968;-64
2022/01/21 02:16:12;;;;;;;;;;;4.00;99.90;;;;;;4995004;28;20453;-63
2022/01/21 02:21:35;;;;;;;;;;;4.10;99.90;;;;;;4996097;28;19960;-65
2022/01/21 02:24:14;;;;;;;;;;;4.00;99.90;;;;;;4994143;28;19914;-65
2022/01/21 02:26:40;;;;;;;;;;;4.00;99.90;;;;;;4994256;28;19968;-65
2022/01/21 02:29:07;;;;;;;;;;;4.00;99.90;;;;;;4992946;28;19922;-64
2022/01/21 02:31:33;;;;;;;;;;;4.00;99.90;;;;;;4994622;28;19921;-65
2022/01/21 02:33:59;;;;;;;;;;;4.00;99.90;;;;;;4992613;28;19960;-63
2022/01/21 02:36:25;;;;;;;;;;;4.00;99.90;;;;;;4995940;28;19918;-63
2022/01/21 02:38:50;;;;;;;;;;;4.00;99.90;;;;;;4993866;28;19956;-65
2022/01/21 02:41:16;;;;;;;;;;;4.00;99.90;;;;;;4993819;28;19945;-64
2022/01/21 02:43:41;;;;;;;;;;;4.00;99.90;;;;;;4994011;28;19918;-64
2022/01/21 02:46:09;;;;;;;;;;;4.00;99.90;;;;;;4990187;28;20429;-65
2022/01/21 02:48:37;;;;;;;;;;;3.90;99.90;;;;;;4997014;28;19909;-65
2022/01/21 02:51:07;;;;;;;;;;;3.90;99.90;;;;;;4993588;28;19940;-66
2022/01/21 02:56:11;;;;;;;;;;;3.90;99.90;;;;;;4993870;28;19914;-65
2022/01/21 02:58:37;;;;;;;;;;;3.90;99.90;;;;;;4992854;28;19957;-66
2022/01/21 03:01:03;;;;;;;;;;;3.80;99.90;;;;;;4990778;28;20446;-64
2022/01/21 03:03:28;;;;;;;;;;;3.80;99.90;;;;;;4996093;28;20012;-65
2022/01/21 03:05:54;;;;;;;;;;;3.80;99.90;;;;;;4993503;28;20098;-64
2022/01/21 03:08:19;;;;;;;;;;;3.80;99.90;;;;;;4993448;28;19917;-63
2022/01/21 03:10:45;;;;;;;;;;;3.80;99.90;;;;;;4993185;28;19928;-65
2022/01/21 03:13:11;;;;;;;;;;;3.80;99.90;;;;;;4989719;28;19983;-64
2022/01/21 03:15:37;;;;;;;;;;;3.80;99.90;;;;;;5003374;28;19917;-65
2022/01/21 03:18:02;;;;;;;;;;;3.70;99.90;;;;;;4994511;28;19914;-65
2022/01/21 03:20:28;;;;;;;;;;;3.70;99.90;;;;;;4993061;28;20298;-66
2022/01/21 03:22:53;;;;;;;;;;;3.70;99.90;;;;;;4993355;28;19964;-65
2022/01/21 03:25:19;;;;;;;;;;;3.70;99.90;;;;;;4989697;28;19914;-65
2022/01/21 03:27:44;;;;;;;;;;;3.70;99.90;;;;;;4995174;28;19999;-66
2022/01/21 03:30:10;;;;;;;;;;;3.60;99.90;;;;;;5008504;28;19969;-64
2022/01/21 03:32:36;;;;;;;;;;;3.50;99.90;;;;;;4993177;28;20297;-65
2022/01/21 03:35:02;;;;;;;;;;;3.60;99.90;;;;;;4992836;28;19914;-64
2022/01/21 03:37:27;;;;;;;;;;;3.60;99.90;;;;;;4991119;28;19921;-64
2022/01/21 03:39:53;;;;;;;;;;;3.70;99.90;;;;;;4992768;28;19945;-66
2022/01/21 03:42:18;;;;;;;;;;;3.70;99.90;;;;;;4994279;28;19917;-65
2022/01/21 03:44:44;;;;;;;;;;;3.70;99.90;;;;;;4992762;28;19914;-64
2022/01/21 03:47:09;;;;;;;;;;;3.60;99.90;;;;;;4992811;28;19960;-65
2022/01/21 03:49:41;;;;;;;;;;;3.60;99.90;;;;;;4991970;28;20327;-65
2022/01/21 03:52:07;;;;;;;;;;;3.60;99.90;;;;;;4989822;28;19985;-66
2022/01/21 03:54:34;;;;;;;;;;;3.60;99.90;;;;;;4995594;28;20455;-63
2022/01/21 03:57:00;;;;;;;;;;;3.50;99.90;;;;;;4992367;28;19913;-63
2022/01/21 03:59:25;;;;;;;;;;;3.50;99.90;;;;;;4989156;28;19921;-64
2022/01/21 04:01:51;;;;;;;;;;;3.50;99.90;;;;;;4992957;28;20000;-65
2022/01/21 04:04:16;;;;;;;;;;;3.60;99.90;;;;;;4989186;28;19925;-64
2022/01/21 04:06:42;;;;;;;;;;;3.70;99.90;;;;;;4993913;28;20406;-65
2022/01/21 04:09:08;;;;;;;;;;;3.70;99.90;;;;;;4992954;28;19995;-65
2022/01/21 04:11:33;;;;;;;;;;;3.70;99.90;;;;;;4992803;28;19914;-64
2022/01/21 04:13:59;;;;;;;;;;;3.70;99.90;;;;;;4992364;28;19917;-65
2022/01/21 04:16:24;;;;;;;;;;;3.60;99.90;;;;;;4990022;28;19925;-65
2022/01/21 04:18:50;;;;;;;;;;;3.60;99.90;;;;;;4993669;28;20286;-63
2022/01/21 04:21:15;;;;;;;;;;;3.70;99.90;;;;;;4993593;28;20297;-63
2022/01/21 04:23:41;;;;;;;;;;;3.70;99.90;;;;;;4993968;28;20048;-64
2022/01/21 04:26:06;;;;;;;;;;;3.70;99.90;;;;;;4992982;28;19914;-66
2022/01/21 04:28:32;;;;;;;;;;;3.70;99.90;;;;;;4992191;28;19921;-62
2022/01/21 04:30:58;;;;;;;;;;;3.70;99.90;;;;;;4995282;28;19917;-64
2022/01/21 04:33:24;;;;;;;;;;;3.60;99.90;;;;;;4998172;28;19917;-64
2022/01/21 04:35:49;;;;;;;;;;;3.60;99.90;;;;;;4996406;28;19914;-65
2022/01/21 04:38:18;;;;;;;;;;;3.60;99.90;;;;;;4996439;28;19913;-65
2022/01/21 04:40:52;;;;;;;;;;;3.70;99.90;;;;;;4995974;28;19920;-65
2022/01/21 04:48:46;;;;;;;;;;;3.80;99.90;;;;;;5007191;28;19963;-64
2022/01/21 04:51:16;;;;;;;;;;;3.80;99.90;;;;;;4996422;28;20392;-64
2022/01/21 04:53:46;;;;;;;;;;;3.70;99.90;;;;;;4995796;28;19920;-65
2022/01/21 04:56:11;;;;;;;;;;;3.70;99.90;;;;;;4995696;28;20275;-65
2022/01/21 04:58:37;;;;;;;;;;;3.80;99.90;;;;;;4995182;28;19960;-63
2022/01/21 05:01:05;;;;;;;;;;;3.70;99.90;;;;;;4993461;28;20382;-65
2022/01/21 05:03:31;;;;;;;;;;;3.80;99.90;;;;;;4998376;28;19918;-65
2022/01/21 05:05:56;;;;;;;;;;;3.80;99.90;;;;;;4995090;28;20451;-64
2022/01/21 05:08:28;;;;;;;;;;;3.90;99.90;;;;;;4996917;28;19917;-66
2022/01/21 05:10:53;;;;;;;;;;;3.90;99.90;;;;;;4995973;28;19921;-65
2022/01/21 05:13:23;;;;;;;;;;;3.80;99.90;;;;;;4992068;28;19918;-64
2022/01/21 05:16:03;;;;;;;;;;;3.80;99.90;;;;;;4996235;28;20302;-65
2022/01/21 05:18:29;;;;;;;;;;;3.80;99.90;;;;;;4997869;28;20572;-64
2022/01/21 05:20:54;;;;;;;;;;;3.80;99.90;;;;;;4995673;28;19910;-65
2022/01/21 05:23:20;;;;;;;;;;;3.90;99.90;;;;;;4995630;28;19913;-65
2022/01/21 05:25:45;;;;;;;;;;;3.90;99.90;;;;;;4995307;28;19910;-65
2022/01/21 05:28:12;;;;;;;;;;;3.90;99.90;;;;;;4991731;28;19914;-64
2022/01/21 05:30:37;;;;;;;;;;;3.90;99.90;;;;;;4998604;28;19924;-65
2022/01/21 05:33:03;;;;;;;;;;;3.90;99.90;;;;;;4995029;28;20008;-65
2022/01/21 05:35:28;;;;;;;;;;;3.80;99.90;;;;;;4995197;28;20290;-63
2022/01/21 05:37:54;;;;;;;;;;;3.80;99.90;;;;;;4996967;28;20404;-65
2022/01/21 05:40:20;;;;;;;;;;;3.80;99.90;;;;;;4990672;28;19915;-64
2022/01/21 05:42:46;;;;;;;;;;;3.80;99.90;;;;;;4997035;28;19910;-65
2022/01/21 05:47:55;;;;;;;;;;;3.80;99.90;;;;;;4995227;28;19960;-65
2022/01/21 05:50:21;;;;;;;;;;;3.80;99.90;;;;;;4994658;28;19925;-64
2022/01/21 05:52:47;;;;;;;;;;;3.90;99.90;;;;;;4994963;28;19914;-65
2022/01/21 05:55:14;;;;;;;;;;;3.90;99.90;;;;;;4990397;28;20024;-65
2022/01/21 05:57:39;;;;;;;;;;;4.00;99.90;;;;;;4998391;28;20180;-65
2022/01/21 06:00:05;;;;;;;;;;;3.90;99.90;;;;;;4994816;28;20358;-63
2022/01/21 06:02:31;;;;;;;;;;;3.90;99.90;;;;;;4994996;28;19957;-64
2022/01/21 06:04:56;;;;;;;;;;;3.90;99.90;;;;;;4994537;28;20366;-64
2022/01/21 06:07:22;;;;;;;;;;;3.80;99.90;;;;;;4993978;28;19992;-64
2022/01/21 06:09:47;;;;;;;;;;;3.90;99.90;;;;;;4995324;28;20440;-63
2022/01/21 06:12:13;;;;;;;;;;;3.90;99.90;;;;;;4995843;28;19920;-64
2022/01/21 06:14:39;;;;;;;;;;;3.80;99.90;;;;;;4994217;28;20004;-65
2022/01/21 06:17:05;;;;;;;;;;;3.80;99.90;;;;;;4994822;28;19993;-64
2022/01/21 06:19:30;;;;;;;;;;;3.80;99.90;;;;;;4993637;28;19918;-65
2022/01/21 06:21:56;;;;;;;;;;;3.90;99.90;;;;;;4993918;28;19917;-65
2022/01/21 06:24:21;;;;;;;;;;;3.90;99.90;;;;;;4997782;28;20000;-65
2022/01/21 06:26:47;;;;;;;;;;;3.90;99.90;;;;;;4994216;28;19920;-65
2022/01/21 06:29:13;;;;;;;;;;;3.90;99.90;;;;;;4994039;28;20819;-65
2022/01/21 06:31:38;;;;;;;;;;;3.90;99.90;;;;;;4994859;28;19914;-65
2022/01/21 06:34:04;;;;;;;;;;;3.90;99.90;;;;;;4991715;28;19940;-65
2022/01/21 06:36:30;;;;;;;;;;;3.90;99.90;;;;;;4995563;28;19910;-64
2022/01/21 06:38:55;;;;;;;;;;;3.90;99.90;;;;;;4993348;28;19949;-65
2022/01/21 06:41:21;;;;;;;;;;;3.90;99.90;;;;;;4993806;28;19948;-65
2022/01/21 06:43:47;;;;;;;;;;;3.90;99.90;;;;;;4994882;28;20746;-65
2022/01/21 06:46:13;;;;;;;;;;;3.90;99.90;;;;;;4990004;28;20012;-65
2022/01/21 06:48:38;;;;;;;;;;;3.90;99.90;;;;;;5004085;28;19939;-65
2022/01/21 06:51:04;;;;;;;;;;;3.90;99.90;;;;;;5002360;28;19928;-64
2022/01/21 06:53:29;;;;;;;;;;;3.90;99.90;;;;;;4997748;28;20017;-65
2022/01/21 06:55:55;;;;;;;;;;;3.90;99.90;;;;;;4992286;28;19953;-64
2022/01/21 06:58:20;;;;;;;;;;;3.80;99.90;;;;;;4990097;28;19915;-65
2022/01/21 07:00:46;;;;;;;;;;;3.90;99.90;;;;;;4995125;28;20380;-65
2022/01/21 07:03:12;;;;;;;;;;;3.90;99.90;;;;;;4996302;28;20432;-69
2022/01/21 07:05:38;;;;;;;;;;;4.00;99.90;;;;;;4997907;28;20297;-66
2022/01/21 07:08:03;;;;;;;;;;;4.10;99.90;;;;;;4993223;28;20294;-65
2022/01/21 07:10:30;;;;;;;;;;;4.10;99.90;;;;;;4991142;28;20013;-66
2022/01/21 07:12:56;;;;;;;;;;;4.00;99.90;;;;;;4992864;28;19910;-66
2022/01/21 07:15:21;;;;;;;;;;;4.00;99.90;;;;;;4994397;28;20401;-65
2022/01/21 07:17:48;;;;;;;;;;;4.10;99.90;;;;;;4993432;28;20005;-65
2022/01/21 07:20:15;;;;;;;;;;;4.20;99.90;;;;;;4992817;28;19914;-64
2022/01/21 07:22:40;;;;;;;;;;;4.10;99.90;;;;;;4992253;28;19917;-65
2022/01/21 07:25:06;;;;;;;;;;;4.10;99.90;;;;;;4989971;28;19988;-65
2022/01/21 07:27:32;;;;;;;;;;;4.10;99.90;;;;;;5001682;28;20362;-65
2022/01/21 07:29:58;;;;;;;;;;;4.10;99.90;;;;;;4999031;28;19928;-65
2022/01/21 07:32:24;;;;;;;;;;;4.00;99.90;;;;;;4983009;28;19922;-65
2022/01/21 07:34:49;;;;;;;;;;;4.00;99.90;;;;;;4987741;28;19996;-67
2022/01/21 07:37:15;;;;;;;;;;;4.00;99.90;;;;;;4987829;28;19933;-66
2022/01/21 07:39:40;;;;;;;;;;;4.10;99.90;;;;;;4989927;28;19920;-64
2022/01/21 07:42:06;;;;;;;;;;;4.10;99.90;;;;;;4987797;28;19918;-65
2022/01/21 07:44:31;;;;;;;;;;;4.10;99.90;;;;;;4988840;28;19920;-66
2022/01/21 07:46:57;;;;;;;;;;;4.10;99.90;;;;;;4998559;28;19917;-65
2022/01/21 07:49:23;;;;;;;;;;;4.10;99.90;;;;;;4988795;28;19932;-64
2022/01/21 07:51:48;;;;;;;;;;;4.10;99.90;;;;;;4988277;28;19921;-64
2022/01/21 07:56:49;;;;;;;;;;;4.20;99.90;;;;;;5071856;22;19929;-71
2022/01/21 07:59:15;;;;;;;;;;;4.30;99.90;;;;;;5011061;28;19951;-69
2022/01/21 08:01:41;;;;;;;;;;;4.40;99.90;;;;;;5010065;28;19918;-69
2022/01/21 08:04:07;;;;;;;;;;;4.40;99.90;;;;;;5017071;28;19917;-69
2022/01/21 08:06:33;;;;;;;;;;;4.30;99.90;;;;;;5024276;28;19925;-71
2022/01/21 08:08:59;;;;;;;;;;;4.30;99.90;;;;;;5020014;28;19917;-69
2022/01/21 08:11:25;;;;;;;;;;;4.30;99.90;;;;;;5020496;28;19917;-69
2022/01/21 08:13:51;;;;;;;;;;;4.40;99.90;;;;;;5017931;28;19920;-68
2022/01/21 08:16:17;;;;;;;;;;;4.40;99.90;;;;;;5019582;28;19999;-68
2022/01/21 08:18:42;;;;;;;;;;;4.30;99.90;;;;;;5024442;28;19913;-68
2022/01/21 08:21:08;;;;;;;;;;;4.30;99.90;;;;;;5016572;28;19917;-68
2022/01/21 08:23:34;;;;;;;;;;;4.30;99.90;;;;;;5019338;28;20278;-67
2022/01/21 08:25:59;;;;;;;;;;;4.40;99.90;;;;;;5016412;28;19920;-69
2022/01/21 08:28:25;;;;;;;;;;;4.40;99.90;;;;;;5019185;28;20419;-68
2022/01/21 08:30:51;;;;;;;;;;;4.30;99.90;;;;;;5015830;28;19921;-69
2022/01/21 08:33:16;;;;;;;;;;;4.40;99.90;;;;;;5023020;28;19936;-69
2022/01/21 08:35:42;;;;;;;;;;;4.40;99.90;;;;;;5020002;28;20324;-68
2022/01/21 08:38:07;;;;;;;;;;;4.40;99.90;;;;;;5020626;28;19945;-68
2022/01/21 08:40:33;;;;;;;;;;;4.40;99.90;;;;;;5020383;28;20036;-68
2022/01/21 08:42:59;;;;;;;;;;;4.50;99.90;;;;;;5019044;28;19917;-69
2022/01/21 08:45:25;;;;;;;;;;;4.50;99.90;;;;;;5022742;28;19913;-68
2022/01/21 08:47:51;;;;;;;;;;;4.50;99.90;;;;;;5016724;28;19945;-70
2022/01/21 08:50:18;;;;;;;;;;;4.60;99.90;;;;;;5018802;28;19983;-70
2022/01/21 08:52:44;;;;;;;;;;;4.50;99.90;;;;;;5022694;28;19917;-70
2022/01/21 08:55:14;;;;;;;;;;;4.50;99.90;;;;;;5018834;28;20002;-70
2022/01/21 08:57:41;;;;;;;;;;;4.50;99.90;;;;;;5021942;28;19913;-70
2022/01/21 09:00:09;;;;;;;;;;;4.50;99.90;;;;;;5017330;28;20382;-71
2022/01/21 09:02:34;;;;;;;;;;;4.60;99.90;;;;;;5020898;28;19967;-71
2022/01/21 09:05:00;;;;;;;;;;;4.60;99.90;;;;;;5015556;28;19917;-69
2022/01/21 09:07:25;;;;;;;;;;;4.60;99.90;;;;;;5019685;28;19913;-70
2022/01/21 09:09:51;;;;;;;;;;;4.70;99.90;;;;;;5021996;28;19925;-71
2022/01/21 09:12:16;;;;;;;;;;;4.80;99.90;;;;;;5020634;28;20396;-69
2022/01/21 09:14:42;;;;;;;;;;;4.80;99.90;;;;;;5018008;28;20004;-69
2022/01/21 09:17:07;;;;;;;;;;;4.80;99.90;;;;;;5014956;28;19917;-70
2022/01/21 09:19:33;;;;;;;;;;;4.80;99.90;;;;;;5016167;28;19945;-70
2022/01/21 09:22:02;;;;;;;;;;;4.80;99.90;;;;;;5015764;28;19917;-68
2022/01/21 09:24:28;;;;;;;;;;;4.80;99.90;;;;;;5021334;28;20012;-70
2022/01/21 09:26:53;;;;;;;;;;;4.80;99.90;;;;;;5016062;28;20020;-70
2022/01/21 09:29:19;;;;;;;;;;;4.90;99.90;;;;;;5018334;28;20388;-68
2022/01/21 09:31:44;;;;;;;;;;;5.00;99.90;;;;;;5015528;28;19918;-70
2022/01/21 09:34:10;;;;;;;;;;;5.00;99.90;;;;;;5015934;28;20000;-70
2022/01/21 09:36:36;;;;;;;;;;;5.10;99.90;;;;;;5022899;28;19975;-68
2022/01/21 09:39:03;;;;;;;;;;;5.10;99.90;;;;;;5015893;28;19921;-69
2022/01/21 09:41:29;;;;;;;;;;;5.10;99.90;;;;;;5009709;28;20781;-68
2022/01/21 09:43:55;;;;;;;;;;;5.10;99.90;;;;;;5015695;28;20008;-70
2022/01/21 09:46:33;;;;;;;;;;;5.10;99.90;;;;;;5014123;28;20062;-69
2022/01/21 09:49:20;;;;;;;;;;;5.10;99.90;;;;;;5013286;28;19918;-70
2022/01/21 09:51:46;;;;;;;;;;;5.10;99.90;;;;;;5016727;28;19920;-70
2022/01/21 09:54:13;;;;;;;;;;;5.00;99.90;;;;;;5015391;28;19917;-63
2022/01/21 09:56:41;;;;;;;;;;;5.10;99.90;;;;;;5017081;28;19921;-67
2022/01/21 09:59:07;;;;;;;;;;;5.10;99.90;;;;;;5016146;28;19958;-68
2022/01/21 10:01:33;;;;;;;;;;;5.10;99.90;;;;;;5014445;28;20405;-68
2022/01/21 10:03:59;;;;;;;;;;;5.10;99.90;;;;;;5015384;28;19929;-68
2022/01/21 10:06:26;;;;;;;;;;;5.10;99.90;;;;;;5019813;28;19914;-68
2022/01/21 10:08:54;;;;;;;;;;;5.10;99.90;;;;;;5015576;28;19913;-69
2022/01/21 10:11:20;;;;;;;;;;;5.20;99.90;;;;;;5016261;28;19996;-67
2022/01/21 10:13:47;;;;;;;;;;;5.20;99.90;;;;;;5016184;28;19918;-68
2022/01/21 10:16:13;;;;;;;;;;;5.30;99.90;;;;;;5014237;28;19946;-70
2022/01/21 10:18:40;;;;;;;;;;;5.30;99.90;;;;;;5019223;28;19921;-69
2022/01/21 10:21:13;;;;;;;;;;;5.40;99.90;;;;;;5015846;28;19999;-68
2022/01/21 10:23:40;;;;;;;;;;;5.30;99.90;;;;;;5011901;28;19953;-68
2022/01/21 10:26:06;;;;;;;;;;;5.40;99.90;;;;;;5012361;28;20271;-67
2022/01/21 10:28:32;;;;;;;;;;;5.40;99.90;;;;;;5016289;28;19919;-67
2022/01/21 10:31:07;;;;;;;;;;;5.50;99.90;;;;;;5015477;28;19921;-67
2022/01/21 10:33:36;;;;;;;;;;;5.50;99.90;;;;;;5019021;28;19921;-66
2022/01/21 10:36:10;;;;;;;;;;;5.50;99.90;;;;;;5015354;28;20397;-68
2022/01/21 10:38:41;;;;;;;;;;;5.50;99.90;;;;;;5017338;28;19968;-67
2022/01/21 10:41:08;;;;;;;;;;;5.50;99.90;;;;;;5013928;28;19959;-69
2022/01/21 10:43:34;;;;;;;;;;;5.50;99.90;;;;;;5014173;28;19921;-67
2022/01/21 10:46:00;;;;;;;;;;;5.60;99.90;;;;;;5015562;28;20378;-67
2022/01/21 10:48:29;;;;;;;;;;;5.50;99.90;;;;;;5017179;28;19990;-66
2022/01/21 10:51:13;;;;;;;;;;;5.50;99.90;;;;;;5010034;28;20007;-67
2022/01/21 10:53:43;;;;;;;;;;;5.60;99.90;;;;;;5016345;28;19917;-69
2022/01/21 10:56:10;;;;;;;;;;;5.60;99.90;;;;;;5012514;28;20305;-67
2022/01/21 10:58:43;;;;;;;;;;;5.60;99.90;;;;;;5015486;28;20532;-67
2022/01/21 11:01:12;;;;;;;;;;;5.60;99.90;;;;;;5012743;28;20604;-68
2022/01/21 11:03:56;;;;;;;;;;;5.60;99.90;;;;;;5017081;28;19939;-67
2022/01/21 11:06:25;;;;;;;;;;;5.60;99.90;;;;;;5018733;28;19913;-68
2022/01/21 11:08:50;;;;;;;;;;;5.50;99.90;;;;;;5014893;28;19917;-68
2022/01/21 11:11:22;;;;;;;;;;;5.60;99.90;;;;;;5015351;28;20416;-70
2022/01/21 11:13:48;;;;;;;;;;;5.60;99.90;;;;;;5015017;28;19913;-67
2022/01/21 11:16:18;;;;;;;;;;;5.70;99.90;;;;;;5014128;28;19939;-68
2022/01/21 11:18:51;;;;;;;;;;;5.70;99.90;;;;;;5019449;28;19924;-69
2022/01/21 11:21:17;;;;;;;;;;;5.70;99.90;;;;;;5017439;28;19928;-69
2022/01/21 11:23:42;;;;;;;;;;;5.70;99.90;;;;;;5015216;28;19917;-67
2022/01/21 11:26:09;;;;;;;;;;;5.80;99.90;;;;;;5014647;28;19913;-68
2022/01/21 11:28:34;;;;;;;;;;;5.80;99.90;;;;;;5011807;28;19918;-68
2022/01/21 11:31:00;;;;;;;;;;;5.90;99.90;;;;;;5013397;28;19922;-66
2022/01/21 11:33:25;;;;;;;;;;;5.90;99.90;;;;;;5018219;28;19996;-70
2022/01/21 11:35:52;;;;;;;;;;;5.90;99.90;;;;;;5014504;28;20420;-68
2022/01/21 11:38:18;;;;;;;;;;;5.90;99.90;;;;;;5014868;28;19980;-70
2022/01/21 11:40:45;;;;;;;;;;;5.90;99.90;;;;;;5014850;28;19944;-69
2022/01/21 11:43:11;;;;;;;;;;;5.90;99.90;;;;;;5013610;28;19925;-68
2022/01/21 11:50:38;;;;;;;;;;;6.00;99.90;;;;;;5012230;28;20407;-69
2022/01/21 11:53:05;;;;;;;;;;;6.00;99.90;;;;;;5012941;28;20036;-67
2022/01/21 11:55:32;;;;;;;;;;;6.00;99.90;;;;;;5012951;28;19956;-68
2022/01/21 11:58:29;;;;;;;;;;;5.90;99.90;;;;;;5015255;28;20313;-68
2022/01/21 12:00:55;;;;;;;;;;;5.90;99.90;;;;;;4990775;28;19918;-68
2022/01/21 12:03:23;;;;;;;;;;;5.90;99.90;;;;;;4995110;28;19925;-70
2022/01/21 12:05:50;;;;;;;;;;;5.80;99.90;;;;;;4992028;28;19918;-68
2022/01/21 12:08:35;;;;;;;;;;;5.80;99.90;;;;;;4992914;28;20381;-70
2022/01/21 12:11:21;;;;;;;;;;;5.90;99.90;;;;;;4988082;28;19969;-69
2022/01/21 12:13:46;;;;;;;;;;;5.90;99.90;;;;;;4994166;28;19957;-71
2022/01/21 12:16:24;;;;;;;;;;;5.90;99.90;;;;;;4990733;28;20401;-72
2022/01/21 12:19:08;;;;;;;;;;;6.00;99.90;;;;;;4995097;28;20005;-72
2022/01/21 12:21:35;;;;;;;;;;;6.00;99.90;;;;;;4993608;28;20006;-69
2022/01/21 12:24:01;;;;;;;;;;;6.10;99.90;;;;;;4991961;28;19918;-71
2022/01/21 12:26:27;;;;;;;;;;;6.10;99.90;;;;;;4992337;28;19936;-71
2022/01/21 12:28:58;;;;;;;;;;;6.10;99.90;;;;;;4989160;28;19914;-70
2022/01/21 12:32:27;;;;;;;;;;;6.10;99.90;;;;;;4988499;28;19926;-71
2022/01/21 12:34:48;;;;;;;;;;;6.10;99.90;;;;;;4991385;28;19914;-71
2022/01/21 12:37:16;;;;;;;;;;;6.10;99.90;;;;;;5008771;28;19917;-71
2022/01/21 12:39:46;;;;;;;;;;;6.10;99.90;;;;;;5017712;28;20428;-71
2022/01/21 12:42:21;;;;;;;;;;;6.10;99.90;;;;;;5013979;28;19914;-73
2022/01/21 12:44:47;;;;;;;;;;;6.20;99.90;;;;;;5012976;28;19913;-71
2022/01/21 12:47:31;;;;;;;;;;;6.30;99.90;;;;;;5014509;28;19924;-71
2022/01/21 12:49:58;;;;;;;;;;;6.30;99.90;;;;;;5010005;28;19971;-71
2022/01/21 12:55:56;;;;;;;;;;;6.20;99.90;;;;;;5012355;28;19937;-69
2022/01/21 12:58:32;;;;;;;;;;;6.20;99.90;;;;;;5013488;28;19917;-71
2022/01/21 13:00:59;;;;;;;;;;;6.20;99.90;;;;;;5013364;28;19913;-72
2022/01/21 13:03:33;;;;;;;;;;;6.20;99.90;;;;;;5009713;28;20007;-71
2022/01/21 13:06:25;;;;;;;;;;;6.20;99.90;;;;;;5014798;28;19917;-71
2022/01/21 13:09:08;;;;;;;;;;;6.20;99.90;;;;;;5012433;28;19920;-71
2022/01/21 13:11:35;;;;;;;;;;;6.10;99.90;;;;;;5018220;28;20015;-71
2022/01/21 13:14:12;;;;;;;;;;;6.10;99.90;;;;;;5017994;28;19948;-72
2022/01/21 13:16:40;;;;;;;;;;;6.00;99.90;;;;;;5019768;28;20305;-71
2022/01/21 13:19:05;;;;;;;;;;;6.10;99.90;;;;;;5018195;28;19959;-71
2022/01/21 13:21:32;;;;;;;;;;;6.10;99.90;;;;;;5020185;28;19953;-71
2022/01/21 13:24:02;;;;;;;;;;;6.10;99.90;;;;;;5016940;28;20261;-73
2022/01/21 13:26:31;;;;;;;;;;;6.00;99.90;;;;;;5017659;28;19923;-70
2022/01/21 13:29:02;;;;;;;;;;;6.00;99.90;;;;;;5014350;28;19913;-71
2022/01/21 13:31:30;;;;;;;;;;;6.10;99.90;;;;;;5016808;28;20407;-71
2022/01/21 13:34:05;;;;;;;;;;;6.10;99.90;;;;;;5015156;28;20388;-72
2022/01/21 13:36:47;;;;;;;;;;;6.20;99.90;;;;;;5019929;28;19910;-72
2022/01/21 13:39:14;;;;;;;;;;;6.30;99.90;;;;;;5016763;28;19913;-72
2022/01/21 13:42:00;;;;;;;;;;;6.40;99.90;;;;;;5017773;28;19921;-73
2022/01/21 13:44:32;;;;;;;;;;;6.40;99.90;;;;;;5016220;28;19995;-71
2022/01/21 13:46:57;;;;;;;;;;;6.50;99.90;;;;;;5009497;28;20366;-70
2022/01/21 13:49:24;;;;;;;;;;;6.50;99.90;;;;;;5017497;28;19971;-71
2022/01/21 13:51:53;;;;;;;;;;;6.50;99.90;;;;;;5016663;28;20376;-70
2022/01/21 13:54:27;;;;;;;;;;;6.50;99.90;;;;;;5016880;28;19921;-72
2022/01/21 13:56:53;;;;;;;;;;;6.50;99.90;;;;;;5015977;28;20015;-71
2022/01/21 13:59:18;;;;;;;;;;;6.60;99.90;;;;;;5017134;28;19975;-71
2022/01/21 14:01:44;;;;;;;;;;;6.60;99.90;;;;;;5015972;28;20000;-72
2022/01/21 14:04:09;;;;;;;;;;;6.60;99.90;;;;;;5015884;28;19918;-72
2022/01/21 14:06:35;;;;;;;;;;;6.50;99.90;;;;;;5020866;28;20003;-70
2022/01/21 14:09:01;;;;;;;;;;;6.50;99.90;;;;;;5015806;28;20030;-72
2022/01/21 14:11:36;;;;;;;;;;;6.40;99.90;;;;;;5019218;28;19922;-72
2022/01/21 14:14:08;;;;;;;;;;;6.50;99.90;;;;;;5012696;28;19920;-71
2022/01/21 14:16:36;;;;;;;;;;;6.50;99.90;;;;;;5013180;28;19917;-72
2022/01/21 14:19:03;;;;;;;;;;;6.50;99.90;;;;;;5017066;28;19913;-71
2022/01/21 14:21:30;;;;;;;;;;;6.60;99.90;;;;;;5016946;28;20329;-72
2022/01/21 14:23:56;;;;;;;;;;;6.60;99.90;;;;;;5013127;28;19917;-71
2022/01/21 14:26:36;;;;;;;;;;;6.60;99.90;;;;;;5016010;28;19913;-70
2022/01/21 14:29:03;;;;;;;;;;;6.70;99.90;;;;;;5015880;28;19971;-70
2022/01/21 14:31:31;;;;;;;;;;;6.70;99.90;;;;;;5013188;28;19943;-71
2022/01/21 14:33:57;;;;;;;;;;;6.60;99.90;;;;;;5011734;28;19924;-72
2022/01/21 14:36:22;;;;;;;;;;;6.60;99.90;;;;;;5018814;28;19916;-71
2022/01/21 14:38:49;;;;;;;;;;;6.50;99.90;;;;;;5013167;28;19920;-71
2022/01/21 14:41:18;;;;;;;;;;;6.40;99.90;;;;;;5012654;28;20061;-70
2022/01/21 14:43:50;;;;;;;;;;;6.40;99.90;;;;;;5015572;28;19921;-70
2022/01/21 14:46:23;;;;;;;;;;;6.40;99.90;;;;;;5014603;28;19933;-71
2022/01/21 14:48:59;;;;;;;;;;;6.40;99.90;;;;;;5014685;28;19913;-71
2022/01/21 14:52:04;;;;;;;;;;;6.30;99.90;;;;;;5017764;28;19929;-70
2022/01/21 14:54:37;;;;;;;;;;;6.40;99.90;;;;;;5020272;28;19977;-70
2022/01/21 14:57:04;;;;;;;;;;;6.40;99.90;;;;;;5013338;28;19957;-71
2022/01/21 14:59:30;;;;;;;;;;;6.40;99.90;;;;;;5014094;28;19914;-71
2022/01/21 15:02:00;;;;;;;;;;;6.30;99.90;;;;;;5015400;28;19921;-71
2022/01/21 15:04:26;;;;;;;;;;;6.20;99.90;;;;;;5014233;28;19913;-72
2022/01/21 15:07:08;;;;;;;;;;;6.20;99.90;;;;;;5033096;28;20396;-70
2022/01/21 15:09:34;;;;;;;;;;;6.30;99.90;;;;;;5015665;28;19965;-72
2022/01/21 15:14:23;;;;;;;;;;;6.30;99.90;;;;;;5013370;28;19930;-73
2022/01/21 15:14:58;;;;;;;;;;;6.30;99.90;;;;;;5013380;28;19918;-71
2022/01/21 15:17:25;;;;;;;;;;;6.40;99.90;;;;;;5016311;28;19936;-71
2022/01/21 15:19:51;;;;;;;;;;;6.30;99.90;;;;;;5014549;28;19917;-71
2022/01/21 15:22:20;;;;;;;;;;;6.30;99.90;;;;;;5013780;28;19922;-71
2022/01/21 15:24:46;;;;;;;;;;;6.20;99.90;;;;;;5016221;28;20385;-70
2022/01/21 15:27:12;;;;;;;;;;;6.20;99.90;;;;;;5017314;28;20300;-71